Time;durP1;ratioP1;P1;durP2;ratioP2;P2;SDS_P1;SDS_P2;PMS_P1;PMS_P2;Temp;Humidity;BMP_temperature;BMP_pressure;BME280_temperature;BME280_humidity;BME280_pressure;Samples;Min_cycle;Max_cycle;Signal;HPM_P1;HPM_P2
2022/03/05 00:02:16;;;;;;;14.90;10.82;;;6.50;99.90;;;;;;4946592;29;20142;-66
2022/03/05 00:04:43;;;;;;;13.48;9.60;;;6.40;99.90;;;;;;4953539;28;20091;-64
2022/03/05 00:07:10;;;;;;;15.52;10.82;;;6.50;99.90;;;;;;4967141;28;20053;-64
2022/03/05 00:09:37;;;;;;;16.20;12.13;;;6.40;99.90;;;;;;4923132;29;20051;-64
2022/03/05 00:12:05;;;;;;;15.07;11.45;;;6.40;99.90;;;;;;4955114;28;20131;-65
2022/03/05 00:14:31;;;;;;;13.65;10.90;;;6.40;99.90;;;;;;4948534;28;20062;-65
2022/03/05 00:16:58;;;;;;;16.30;11.23;;;6.30;99.90;;;;;;4952528;28;20051;-64
2022/03/05 00:19:25;;;;;;;13.75;11.07;;;6.40;99.90;;;;;;4967924;28;20098;-64
2022/03/05 00:21:54;;;;;;;14.63;11.60;;;6.30;99.90;;;;;;4967239;28;20085;-64
2022/03/05 00:24:23;;;;;;;15.98;11.57;;;6.30;99.90;;;;;;4968247;28;20106;-65
2022/03/05 00:26:50;;;;;;;17.13;12.63;;;6.20;99.90;;;;;;4984096;28;20051;-64
2022/03/05 00:29:17;;;;;;;19.02;13.07;;;6.30;99.90;;;;;;4984283;28;20054;-65
2022/03/05 00:31:44;;;;;;;18.45;13.45;;;6.30;99.90;;;;;;4983810;28;20134;-64
2022/03/05 00:34:11;;;;;;;15.80;11.82;;;6.30;99.90;;;;;;4984982;28;20056;-64
2022/03/05 00:36:38;;;;;;;18.08;12.52;;;6.20;99.90;;;;;;4984160;28;20051;-65
2022/03/05 00:39:05;;;;;;;16.58;12.48;;;6.30;99.90;;;;;;4985115;28;20051;-64
2022/03/05 00:41:33;;;;;;;17.95;13.27;;;6.20;99.90;;;;;;4962367;28;20089;-65
2022/03/05 00:44:00;;;;;;;18.33;13.85;;;6.20;99.90;;;;;;4938895;28;20065;-64
2022/03/05 00:46:27;;;;;;;23.85;15.98;;;6.20;99.90;;;;;;4969517;28;20447;-64
2022/03/05 00:48:54;;;;;;;18.20;13.18;;;6.20;99.90;;;;;;4984068;28;20102;-65
2022/03/05 00:51:21;;;;;;;19.65;14.18;;;6.20;99.90;;;;;;4937080;28;20163;-65
2022/03/05 00:53:48;;;;;;;19.27;14.30;;;6.20;99.90;;;;;;4959224;28;20057;-65
2022/03/05 00:56:15;;;;;;;20.00;14.27;;;6.10;99.90;;;;;;4956200;28;20047;-65
2022/03/05 00:58:42;;;;;;;21.65;15.73;;;6.20;99.90;;;;;;4934630;29;20058;-65
2022/03/05 01:01:09;;;;;;;19.85;13.75;;;6.20;99.90;;;;;;4917965;28;20054;-65
2022/03/05 01:03:36;;;;;;;18.35;13.32;;;6.20;99.90;;;;;;4966288;28;20062;-66
2022/03/05 01:06:04;;;;;;;19.10;14.00;;;6.20;99.90;;;;;;4972500;28;20372;-65
2022/03/05 01:08:33;;;;;;;21.27;14.25;;;6.20;99.90;;;;;;4971151;28;20047;-64
2022/03/05 01:11:00;;;;;;;18.92;13.82;;;6.20;99.90;;;;;;4929545;29;20131;-65
2022/03/05 01:13:28;;;;;;;17.13;12.48;;;6.20;99.90;;;;;;4935263;29;20048;-65
2022/03/05 01:15:55;;;;;;;19.65;14.43;;;6.20;99.90;;;;;;4956105;28;20074;-64
2022/03/05 01:18:22;;;;;;;17.48;12.82;;;6.20;99.90;;;;;;4961777;28;20142;-64
2022/03/05 01:20:49;;;;;;;16.63;11.73;;;6.20;99.90;;;;;;4970069;28;20074;-65
2022/03/05 01:23:15;;;;;;;17.25;11.40;;;6.20;99.90;;;;;;4972793;28;20085;-66
2022/03/05 01:25:42;;;;;;;17.33;12.82;;;6.20;99.90;;;;;;4951763;29;20142;-65
2022/03/05 01:28:09;;;;;;;16.13;11.32;;;6.20;99.90;;;;;;4970771;28;20075;-66
2022/03/05 01:30:36;;;;;;;14.80;11.82;;;6.20;99.90;;;;;;4971162;28;20517;-65
2022/03/05 01:33:04;;;;;;;16.27;11.90;;;6.10;99.90;;;;;;4958735;28;20061;-65
2022/03/05 01:35:31;;;;;;;15.02;11.25;;;6.00;99.90;;;;;;4956769;28;20055;-65
2022/03/05 01:37:58;;;;;;;16.48;12.30;;;6.00;99.90;;;;;;4974350;28;20039;-65
2022/03/05 01:40:25;;;;;;;15.90;11.98;;;6.00;99.90;;;;;;4942456;28;20054;-65
2022/03/05 01:42:52;;;;;;;15.57;12.00;;;6.00;99.90;;;;;;4967014;28;20133;-65
2022/03/05 01:45:19;;;;;;;16.42;11.20;;;6.10;99.90;;;;;;4971246;28;20098;-65
2022/03/05 01:47:46;;;;;;;16.85;12.10;;;6.00;99.90;;;;;;4958402;28;20073;-65
2022/03/05 01:50:13;;;;;;;14.18;9.93;;;6.00;99.90;;;;;;4950030;28;20051;-65
2022/03/05 01:52:40;;;;;;;13.50;9.98;;;5.90;99.90;;;;;;4985631;28;20973;-65
2022/03/05 01:55:07;;;;;;;13.02;9.70;;;5.90;99.90;;;;;;4956454;28;20411;-65
2022/03/05 01:57:34;;;;;;;13.85;9.80;;;5.90;99.90;;;;;;4957418;28;20074;-65
2022/03/05 02:00:01;;;;;;;12.27;9.13;;;5.80;99.90;;;;;;4941409;29;20139;-65
2022/03/05 02:02:28;;;;;;;11.85;9.00;;;5.80;99.90;;;;;;4956825;28;20555;-65
2022/03/05 02:04:55;;;;;;;10.95;8.27;;;5.80;99.90;;;;;;4955200;28;20088;-67
2022/03/05 02:07:22;;;;;;;11.43;8.50;;;5.80;99.90;;;;;;4936548;29;20047;-65
2022/03/05 02:09:50;;;;;;;11.40;8.77;;;5.80;99.90;;;;;;4965434;28;20054;-65
2022/03/05 02:12:17;;;;;;;9.25;7.30;;;5.70;99.90;;;;;;4987063;28;20047;-65
2022/03/05 02:14:44;;;;;;;8.00;6.53;;;5.70;99.90;;;;;;4958289;28;20054;-65
2022/03/05 02:17:11;;;;;;;7.75;5.38;;;5.70;99.90;;;;;;4970992;28;20069;-65
2022/03/05 02:19:38;;;;;;;7.72;5.63;;;5.70;99.90;;;;;;4948187;29;20051;-65
2022/03/05 02:22:06;;;;;;;7.32;5.53;;;5.60;99.90;;;;;;4967283;28;20508;-65
2022/03/05 02:24:33;;;;;;;8.10;5.85;;;5.50;99.90;;;;;;4972728;28;20203;-65
2022/03/05 02:27:04;;;;;;;8.20;5.05;;;5.50;99.90;;;;;;4971811;28;20561;-65
2022/03/05 02:29:31;;;;;;;6.53;4.53;;;5.50;99.90;;;;;;4954196;28;20046;-65
2022/03/05 02:31:58;;;;;;;7.32;5.22;;;5.50;99.90;;;;;;4954495;28;20055;-65
2022/03/05 02:34:25;;;;;;;5.93;4.45;;;5.50;99.90;;;;;;4958817;28;20590;-65
2022/03/05 02:36:52;;;;;;;6.05;4.75;;;5.50;99.90;;;;;;4954355;28;20055;-65
2022/03/05 02:39:19;;;;;;;5.78;4.55;;;5.50;99.90;;;;;;4985295;28;20563;-65
2022/03/05 02:41:46;;;;;;;6.35;4.50;;;5.50;99.90;;;;;;4951423;28;20433;-65
2022/03/05 02:44:13;;;;;;;5.82;4.32;;;5.40;99.90;;;;;;4954980;28;20054;-65
2022/03/05 02:46:40;;;;;;;7.43;4.63;;;5.50;99.90;;;;;;4935024;28;20077;-65
2022/03/05 02:49:07;;;;;;;7.32;5.03;;;5.50;99.90;;;;;;4964684;28;20487;-64
2022/03/05 02:51:34;;;;;;;6.50;5.22;;;5.50;99.90;;;;;;4954948;28;20130;-64
2022/03/05 02:54:01;;;;;;;5.75;4.88;;;5.50;99.90;;;;;;4953772;28;20453;-65
2022/03/05 02:56:28;;;;;;;7.80;5.30;;;5.60;99.90;;;;;;4954965;28;20061;-65
2022/03/05 02:58:55;;;;;;;6.55;5.18;;;5.60;99.90;;;;;;4966786;28;20503;-65
2022/03/05 03:01:23;;;;;;;7.32;4.78;;;5.60;99.90;;;;;;4963562;28;20074;-64
2022/03/05 03:03:51;;;;;;;6.70;4.60;;;5.60;99.90;;;;;;4971928;28;20407;-65
2022/03/05 03:06:18;;;;;;;6.80;5.43;;;5.60;99.90;;;;;;4966460;28;20057;-65
2022/03/05 03:08:45;;;;;;;7.97;5.45;;;5.70;99.90;;;;;;4953672;28;20059;-65
2022/03/05 03:11:12;;;;;;;7.05;5.55;;;5.70;99.90;;;;;;4960009;28;20154;-65
2022/03/05 03:13:39;;;;;;;6.85;5.63;;;5.70;99.90;;;;;;4970953;28;20150;-65
2022/03/05 03:16:09;;;;;;;8.30;5.57;;;5.70;99.90;;;;;;4970745;28;20125;-65
2022/03/05 03:18:36;;;;;;;7.05;5.70;;;5.70;99.90;;;;;;4948968;29;20474;-72
2022/03/05 03:21:03;;;;;;;141.07;102.88;;;5.70;99.90;;;;;;4954786;28;20411;-65
2022/03/05 03:23:30;;;;;;;60.00;41.88;;;5.80;99.90;;;;;;4984216;28;20521;-65
2022/03/05 03:25:57;;;;;;;19.20;13.50;;;5.80;99.90;;;;;;4967790;28;20046;-65
2022/03/05 03:28:24;;;;;;;12.70;8.48;;;5.90;99.90;;;;;;4951105;28;20487;-65
2022/03/05 03:30:51;;;;;;;9.60;7.68;;;5.90;99.90;;;;;;4969206;28;20047;-65
2022/03/05 03:33:18;;;;;;;8.23;7.18;;;5.90;99.90;;;;;;4938312;29;20053;-65
2022/03/05 03:35:45;;;;;;;10.55;7.20;;;5.90;99.90;;;;;;4959559;28;20058;-65
2022/03/05 03:38:12;;;;;;;8.75;6.75;;;5.90;99.90;;;;;;4965731;28;20555;-65
2022/03/05 03:40:39;;;;;;;8.95;7.45;;;5.90;99.90;;;;;;4953665;28;20051;-64
2022/03/05 03:43:06;;;;;;;10.27;8.10;;;5.90;99.90;;;;;;4953151;28;20129;-68
2022/03/05 03:45:33;;;;;;;10.18;7.53;;;5.90;99.90;;;;;;4952661;28;20055;-65
2022/03/05 03:48:00;;;;;;;9.85;7.43;;;5.90;99.90;;;;;;4958695;28;20420;-65
2022/03/05 03:50:27;;;;;;;11.48;8.18;;;5.80;99.90;;;;;;4968225;28;20547;-65
2022/03/05 03:52:54;;;;;;;10.25;8.40;;;5.90;99.90;;;;;;4963162;28;20153;-65
2022/03/05 03:55:22;;;;;;;11.75;8.73;;;5.90;99.90;;;;;;4954349;28;20451;-65
2022/03/05 03:57:49;;;;;;;10.65;7.95;;;5.90;99.90;;;;;;4939188;28;20051;-65
2022/03/05 04:00:17;;;;;;;13.18;8.93;;;5.90;99.90;;;;;;4967089;28;20054;-65
2022/03/05 04:02:44;;;;;;;10.80;7.97;;;5.90;99.90;;;;;;4953905;28;20055;-65
2022/03/05 04:05:11;;;;;;;10.23;8.40;;;5.90;99.90;;;;;;4952713;28;20043;-65
2022/03/05 04:10:24;;;;;;;12.00;9.25;;;5.90;99.90;;;;;;4964643;28;20047;-65
2022/03/05 04:12:51;;;;;;;13.98;8.13;;;5.90;99.90;;;;;;4961102;28;20047;-65
2022/03/05 04:15:19;;;;;;;10.25;7.68;;;5.90;99.90;;;;;;4937840;28;20047;-65
2022/03/05 04:17:46;;;;;;;8.98;8.07;;;6.00;99.90;;;;;;4963529;28;20043;-67
2022/03/05 04:20:13;;;;;;;11.68;8.40;;;6.00;99.90;;;;;;4953528;28;20051;-65
2022/03/05 04:22:40;;;;;;;11.38;8.60;;;6.00;99.90;;;;;;4959872;28;20054;-65
2022/03/05 04:25:07;;;;;;;10.68;7.82;;;6.00;99.90;;;;;;4966426;28;20118;-65
2022/03/05 04:27:34;;;;;;;11.88;8.77;;;6.00;99.90;;;;;;4955940;28;20130;-65
2022/03/05 04:30:02;;;;;;;9.05;6.97;;;6.00;99.90;;;;;;4968654;28;20062;-65
2022/03/05 04:32:29;;;;;;;10.25;7.88;;;5.90;99.90;;;;;;4952151;28;20078;-65
2022/03/05 04:34:56;;;;;;;10.02;7.50;;;5.90;99.90;;;;;;4983324;28;20047;-65
2022/03/05 04:37:23;;;;;;;8.98;6.80;;;6.00;99.90;;;;;;4952707;28;20051;-65
2022/03/05 04:39:50;;;;;;;9.23;7.13;;;5.90;99.90;;;;;;4951726;28;20061;-66
2022/03/05 04:42:16;;;;;;;9.80;7.63;;;5.90;99.90;;;;;;4946762;29;20059;-67
2022/03/05 04:44:43;;;;;;;9.32;6.35;;;5.90;99.90;;;;;;4953779;28;20066;-65
2022/03/05 04:47:11;;;;;;;8.35;5.93;;;5.90;99.90;;;;;;4960173;28;20125;-65
2022/03/05 04:49:38;;;;;;;8.00;6.80;;;5.90;99.90;;;;;;4935375;29;20048;-65
2022/03/05 04:52:05;;;;;;;8.38;5.85;;;5.90;99.90;;;;;;4955909;28;20158;-67
2022/03/05 04:54:33;;;;;;;6.75;6.05;;;5.90;99.90;;;;;;4966658;28;20502;-67
2022/03/05 04:57:00;;;;;;;7.78;5.75;;;5.90;99.90;;;;;;4971681;28;20047;-65
2022/03/05 04:59:27;;;;;;;7.82;5.75;;;5.90;99.90;;;;;;4955034;28;20388;-65
2022/03/05 05:01:56;;;;;;;7.50;5.43;;;5.90;99.90;;;;;;4949873;28;20143;-65
2022/03/05 05:04:23;;;;;;;8.40;5.53;;;5.90;99.90;;;;;;4987384;28;20057;-65
2022/03/05 05:06:50;;;;;;;6.90;5.68;;;5.90;99.90;;;;;;4956198;28;20436;-65
2022/03/05 05:09:17;;;;;;;6.93;4.97;;;5.90;99.90;;;;;;4956012;28;20135;-65
2022/03/05 05:11:44;;;;;;;6.72;5.57;;;5.90;99.90;;;;;;4939369;28;20079;-65
2022/03/05 05:14:11;;;;;;;9.55;6.63;;;5.90;99.90;;;;;;4960716;28;20495;-65
2022/03/05 05:16:38;;;;;;;10.18;5.63;;;5.80;99.90;;;;;;4941092;28;20082;-65
2022/03/05 05:21:52;;;;;;;7.10;5.25;;;5.90;99.90;;;;;;4982519;28;20085;-65
2022/03/05 05:24:19;;;;;;;9.65;4.72;;;5.90;99.90;;;;;;4954422;28;20131;-65
2022/03/05 05:26:46;;;;;;;7.15;4.38;;;5.80;99.90;;;;;;4956817;28;20047;-65
2022/03/05 05:29:13;;;;;;;8.80;5.10;;;5.80;99.90;;;;;;4988605;28;20046;-65
2022/03/05 05:32:00;;;;;;;7.05;4.75;;;5.90;99.90;;;;;;4965668;28;20066;-65
2022/03/05 05:34:27;;;;;;;6.95;4.90;;;5.90;99.90;;;;;;4961505;28;20078;-65
2022/03/05 05:36:54;;;;;;;8.35;5.40;;;5.90;99.90;;;;;;4970767;28;20414;-65
2022/03/05 05:39:21;;;;;;;8.57;5.20;;;5.90;99.90;;;;;;4944042;28;20047;-65
2022/03/05 05:41:48;;;;;;;7.97;5.30;;;5.90;99.90;;;;;;4971998;28;20070;-65
2022/03/05 05:44:15;;;;;;;6.10;5.15;;;5.90;99.90;;;;;;4973426;28;20062;-65
2022/03/05 05:46:42;;;;;;;6.93;5.35;;;5.90;99.90;;;;;;4968329;28;20130;-66
2022/03/05 05:49:11;;;;;;;5.95;4.53;;;5.90;99.90;;;;;;4970691;28;20059;-65
2022/03/05 05:51:38;;;;;;;6.30;5.13;;;5.90;99.90;;;;;;4986510;28;20130;-65
2022/03/05 05:54:05;;;;;;;8.27;4.47;;;5.90;99.90;;;;;;4969444;28;20051;-65
2022/03/05 05:56:32;;;;;;;8.32;5.55;;;5.90;99.90;;;;;;4986785;28;20102;-65
2022/03/05 05:58:58;;;;;;;8.00;4.45;;;6.00;99.90;;;;;;4965073;28;20138;-65
2022/03/05 06:01:26;;;;;;;5.55;4.38;;;5.90;99.90;;;;;;4966654;28;20497;-65
2022/03/05 06:03:53;;;;;;;8.48;5.20;;;5.90;99.90;;;;;;4956518;28;20062;-65
2022/03/05 06:06:21;;;;;;;8.98;4.40;;;5.90;99.90;;;;;;4955947;28;20039;-65
2022/03/05 06:08:51;;;;;;;8.15;4.85;;;5.90;99.90;;;;;;4968002;28;20252;-64
2022/03/05 06:11:18;;;;;;;4.80;4.25;;;5.90;99.90;;;;;;4949519;28;20451;-64
2022/03/05 06:13:45;;;;;;;6.30;3.85;;;5.90;99.90;;;;;;4957324;28;20519;-67
2022/03/05 06:16:12;;;;;;;8.05;4.85;;;5.90;99.90;;;;;;4956955;28;20134;-64
2022/03/05 06:18:39;;;;;;;6.70;4.93;;;5.90;99.90;;;;;;4952679;28;20057;-64
2022/03/05 06:21:06;;;;;;;7.72;5.00;;;5.90;99.90;;;;;;4958356;28;20058;-64
2022/03/05 06:23:33;;;;;;;7.55;5.85;;;5.90;99.90;;;;;;4968212;28;20137;-64
2022/03/05 06:26:00;;;;;;;9.52;4.25;;;5.90;99.90;;;;;;4960596;28;20049;-64
2022/03/05 06:28:27;;;;;;;8.75;4.30;;;5.90;99.90;;;;;;4964580;28;20117;-64
2022/03/05 06:30:54;;;;;;;10.48;5.68;;;5.90;99.90;;;;;;4992452;28;20134;-64
2022/03/05 06:33:21;;;;;;;7.20;4.57;;;5.90;99.90;;;;;;4969698;28;20055;-64
2022/03/05 06:35:48;;;;;;;6.97;4.43;;;6.00;99.90;;;;;;4985605;28;20051;-64
2022/03/05 06:38:15;;;;;;;6.15;4.72;;;5.90;99.90;;;;;;4969286;28;20135;-64
2022/03/05 06:40:42;;;;;;;12.45;4.70;;;5.90;99.90;;;;;;4960352;28;20491;-64
2022/03/05 06:43:09;;;;;;;7.60;5.70;;;5.90;99.90;;;;;;4985391;28;20059;-66
2022/03/05 06:45:38;;;;;;;5.50;4.22;;;5.90;99.90;;;;;;4955397;28;20055;-65
2022/03/05 06:48:06;;;;;;;5.38;4.00;;;5.80;99.90;;;;;;4937850;28;20134;-67
2022/03/05 06:50:33;;;;;;;10.95;5.10;;;5.80;99.90;;;;;;4964209;28;20053;-65
2022/03/05 06:53:00;;;;;;;5.78;4.40;;;5.80;99.90;;;;;;4928419;28;20053;-65
2022/03/05 06:55:27;;;;;;;5.30;4.03;;;5.80;99.90;;;;;;4961739;28;20053;-65
2022/03/05 06:57:55;;;;;;;7.28;3.80;;;5.80;99.90;;;;;;4937805;29;20130;-64
2022/03/05 07:00:22;;;;;;;5.60;3.85;;;5.80;99.90;;;;;;4967901;28;20043;-65
2022/03/05 07:02:49;;;;;;;5.53;4.22;;;5.80;99.90;;;;;;4954383;28;20055;-66
2022/03/05 07:05:17;;;;;;;5.55;3.88;;;5.80;99.90;;;;;;4918668;29;20060;-65
2022/03/05 07:07:44;;;;;;;7.55;4.68;;;5.80;99.90;;;;;;4965668;28;20584;-65
2022/03/05 07:10:11;;;;;;;10.50;4.88;;;5.80;99.90;;;;;;4965168;28;20058;-65
2022/03/05 07:12:38;;;;;;;8.98;4.63;;;5.80;99.90;;;;;;4957199;28;20134;-66
2022/03/05 07:15:06;;;;;;;6.53;4.03;;;5.70;99.90;;;;;;4968521;28;20213;-66
2022/03/05 07:17:33;;;;;;;6.00;4.72;;;5.80;99.90;;;;;;4954023;28;20074;-65
2022/03/05 07:20:00;;;;;;;6.50;4.78;;;5.80;99.90;;;;;;4984203;28;20126;-66
2022/03/05 07:22:27;;;;;;;6.60;4.80;;;5.80;99.90;;;;;;4959150;28;20074;-65
2022/03/05 07:24:54;;;;;;;5.35;4.32;;;5.70;99.90;;;;;;4936202;29;20321;-65
2022/03/05 07:27:21;;;;;;;6.15;4.32;;;5.70;99.90;;;;;;4952102;29;20098;-66
2022/03/05 07:29:50;;;;;;;9.23;4.25;;;5.80;99.90;;;;;;4956713;28;20046;-63
2022/03/05 07:32:17;;;;;;;6.50;4.40;;;5.80;99.90;;;;;;4957821;28;20086;-65
2022/03/05 07:34:44;;;;;;;5.35;4.38;;;5.80;99.90;;;;;;4952872;29;20063;-67
2022/03/05 07:37:11;;;;;;;4.53;3.65;;;5.80;99.90;;;;;;4954802;28;20053;-65
2022/03/05 07:39:38;;;;;;;7.63;3.97;;;5.80;99.90;;;;;;4958844;28;20047;-65
2022/03/05 07:42:06;;;;;;;7.85;4.38;;;5.80;99.90;;;;;;4946762;28;20158;-65
2022/03/05 07:44:33;;;;;;;6.97;4.22;;;5.70;99.90;;;;;;4955040;28;20062;-65
2022/03/05 07:47:00;;;;;;;9.55;4.80;;;5.70;99.90;;;;;;4944935;28;20495;-65
2022/03/05 07:49:27;;;;;;;8.75;5.22;;;5.70;99.90;;;;;;4943480;28;20044;-66
2022/03/05 07:51:56;;;;;;;7.43;5.20;;;5.70;99.90;;;;;;4938669;29;20051;-65
2022/03/05 07:54:24;;;;;;;7.90;5.47;;;5.70;99.90;;;;;;4956119;28;20122;-65
2022/03/05 07:56:51;;;;;;;5.90;4.60;;;5.80;99.90;;;;;;4983977;28;20564;-65
2022/03/05 07:59:18;;;;;;;7.93;5.13;;;5.70;99.90;;;;;;4954044;28;20145;-66
2022/03/05 08:01:45;;;;;;;9.30;6.25;;;5.70;99.90;;;;;;4964944;28;20051;-66
2022/03/05 08:04:12;;;;;;;10.57;6.03;;;5.70;99.90;;;;;;4953046;28;20356;-65
2022/03/05 08:06:39;;;;;;;6.88;5.28;;;5.80;99.90;;;;;;4982113;28;20530;-65
2022/03/05 08:09:07;;;;;;;8.05;5.50;;;5.80;99.90;;;;;;4951580;28;20045;-66
2022/03/05 08:11:35;;;;;;;7.00;5.10;;;5.80;99.90;;;;;;4953223;28;20130;-65
2022/03/05 08:14:02;;;;;;;11.38;6.22;;;5.80;99.90;;;;;;4960247;28;20054;-65
2022/03/05 08:16:31;;;;;;;6.97;5.10;;;5.80;99.90;;;;;;4955316;28;20121;-65
2022/03/05 08:18:59;;;;;;;10.52;5.82;;;5.90;99.90;;;;;;4927702;28;20044;-65
2022/03/05 08:21:27;;;;;;;10.57;6.63;;;5.90;99.90;;;;;;4945589;28;20053;-65
2022/03/05 08:23:55;;;;;;;7.53;5.55;;;5.90;99.90;;;;;;4952038;28;20057;-66
2022/03/05 08:26:22;;;;;;;7.25;5.05;;;5.90;99.90;;;;;;4929043;28;20095;-65
2022/03/05 08:28:49;;;;;;;7.00;4.97;;;5.90;99.90;;;;;;4958874;28;20054;-65
2022/03/05 08:31:16;;;;;;;7.20;5.15;;;5.90;99.90;;;;;;4971709;28;20059;-65
2022/03/05 08:33:43;;;;;;;6.57;4.88;;;5.90;99.90;;;;;;4987871;28;20058;-65
2022/03/05 08:36:12;;;;;;;6.30;4.67;;;5.90;99.90;;;;;;4971188;28;20134;-65
2022/03/05 08:38:40;;;;;;;12.02;4.70;;;5.90;99.90;;;;;;4987914;28;20340;-65
2022/03/05 08:41:07;;;;;;;6.43;4.30;;;5.90;99.90;;;;;;4952305;28;20066;-65
2022/03/05 08:43:34;;;;;;;6.45;5.47;;;6.00;99.90;;;;;;4971023;28;20061;-65
2022/03/05 08:46:01;;;;;;;6.43;3.85;;;6.00;99.90;;;;;;4952076;29;20056;-66
2022/03/05 08:48:29;;;;;;;6.82;3.78;;;6.00;99.90;;;;;;4955810;29;20154;-66
2022/03/05 08:50:58;;;;;;;37.00;28.90;;;6.00;99.90;;;;;;4971022;28;20086;-72
2022/03/05 08:53:25;;;;;;;6.82;5.00;;;6.00;99.90;;;;;;4956172;28;20101;-66
2022/03/05 08:55:52;;;;;;;5.90;3.90;;;6.10;99.90;;;;;;4958618;28;20109;-66
2022/03/05 08:58:20;;;;;;;8.85;5.45;;;6.10;99.90;;;;;;4956606;28;20468;-66
2022/03/05 09:00:47;;;;;;;6.97;3.90;;;6.10;99.90;;;;;;4964647;28;20135;-66
2022/03/05 09:03:14;;;;;;;6.95;4.55;;;6.10;99.90;;;;;;4957552;28;20406;-66
2022/03/05 09:05:42;;;;;;;6.47;4.20;;;6.10;99.90;;;;;;4958110;28;20134;-66
2022/03/05 09:08:09;;;;;;;7.55;4.80;;;6.10;99.90;;;;;;4943699;28;20109;-66
2022/03/05 09:10:36;;;;;;;6.85;4.90;;;6.10;99.90;;;;;;4967175;28;21326;-66
2022/03/05 09:13:03;;;;;;;7.13;5.10;;;6.10;99.90;;;;;;4956366;28;20047;-69
2022/03/05 09:15:30;;;;;;;5.35;4.50;;;6.10;99.90;;;;;;4969152;28;20086;-66
2022/03/05 09:17:57;;;;;;;7.70;4.78;;;6.10;99.90;;;;;;4972031;28;20118;-66
2022/03/05 09:20:24;;;;;;;7.90;4.70;;;6.20;99.90;;;;;;4957198;28;20070;-66
2022/03/05 09:22:52;;;;;;;8.18;4.55;;;6.20;99.90;;;;;;4957260;28;20047;-66
2022/03/05 09:25:19;;;;;;;12.30;5.50;;;6.20;99.90;;;;;;4940177;28;20465;-67
2022/03/05 09:27:46;;;;;;;29.92;21.50;;;6.20;99.90;;;;;;4954286;28;20130;-67
2022/03/05 09:30:13;;;;;;;52.47;33.00;;;6.20;99.90;;;;;;4964841;28;20053;-67
2022/03/05 09:32:40;;;;;;;11.10;8.20;;;6.20;99.90;;;;;;4966562;28;20519;-67
2022/03/05 09:35:07;;;;;;;11.00;5.57;;;6.20;99.90;;;;;;4957759;28;20137;-67
2022/03/05 09:37:34;;;;;;;9.23;5.40;;;6.30;99.90;;;;;;4965336;28;20078;-66
2022/03/05 09:40:05;;;;;;;6.95;4.90;;;6.30;99.90;;;;;;4953454;28;20057;-67
2022/03/05 09:42:32;;;;;;;6.25;4.00;;;6.40;99.90;;;;;;4956653;28;20141;-67
2022/03/05 09:44:59;;;;;;;8.35;4.40;;;6.40;99.90;;;;;;4955317;29;20438;-66
2022/03/05 09:47:26;;;;;;;8.05;4.55;;;6.40;99.90;;;;;;4939002;29;20055;-66
2022/03/05 09:49:54;;;;;;;5.82;3.50;;;6.40;99.90;;;;;;4955332;29;20047;-66
2022/03/05 09:52:21;;;;;;;7.20;4.40;;;6.50;99.90;;;;;;4989554;28;20411;-67
2022/03/05 09:54:48;;;;;;;6.15;3.78;;;6.50;99.90;;;;;;5006446;28;20054;-67
2022/03/05 09:57:15;;;;;;;6.00;3.70;;;6.50;99.90;;;;;;4976528;28;20476;-67
2022/03/05 09:59:42;;;;;;;5.30;4.38;;;6.50;99.90;;;;;;4954892;29;20058;-67
2022/03/05 10:02:09;;;;;;;7.55;4.20;;;6.60;99.90;;;;;;4970780;28;20047;-66
2022/03/05 10:04:37;;;;;;;9.18;4.40;;;6.50;99.90;;;;;;4971040;28;20098;-66
2022/03/05 10:07:16;;;;;;;5.38;4.78;;;6.50;99.90;;;;;;4970951;28;20398;-66
2022/03/05 10:09:46;;;;;;;8.63;5.30;;;6.50;99.90;;;;;;4970630;28;20863;-66
2022/03/05 10:12:27;;;;;;;6.47;4.30;;;6.50;99.90;;;;;;4987264;28;20082;-66
2022/03/05 10:15:17;;;;;;;7.82;3.97;;;6.50;99.90;;;;;;4985165;28;20051;-66
2022/03/05 10:17:51;;;;;;;7.72;4.20;;;6.50;99.90;;;;;;4956134;28;20057;-67
2022/03/05 10:20:23;;;;;;;7.38;4.90;;;6.50;99.90;;;;;;4947355;29;20133;-66
2022/03/05 10:23:00;;;;;;;5.78;4.72;;;6.50;99.90;;;;;;4986484;28;20051;-66
2022/03/05 10:25:51;;;;;;;6.13;4.60;;;6.50;99.90;;;;;;4939787;29;20134;-67
2022/03/05 10:28:27;;;;;;;6.75;4.43;;;6.40;99.90;;;;;;4951183;28;20049;-66
2022/03/05 10:31:01;;;;;;;8.30;5.35;;;6.40;99.90;;;;;;4955297;28;20051;-67
2022/03/05 10:33:36;;;;;;;6.57;5.25;;;6.40;99.90;;;;;;4944455;28;20484;-67
2022/03/05 10:36:20;;;;;;;6.22;4.63;;;6.40;99.90;;;;;;4938631;29;20073;-67
2022/03/05 10:39:02;;;;;;;7.22;4.93;;;6.40;99.90;;;;;;4959610;28;20078;-66
2022/03/05 10:41:36;;;;;;;6.18;4.90;;;6.40;99.90;;;;;;4965122;28;20516;-66
2022/03/05 10:44:07;;;;;;;8.23;4.80;;;6.40;99.90;;;;;;4957011;28;20142;-66
2022/03/05 10:46:39;;;;;;;5.68;4.20;;;6.40;99.90;;;;;;4938746;29;20047;-66
2022/03/05 10:49:14;;;;;;;9.05;5.00;;;6.40;99.90;;;;;;4953343;28;20139;-66
2022/03/05 10:51:45;;;;;;;7.53;5.00;;;6.40;99.90;;;;;;4966621;28;20043;-67
2022/03/05 10:54:12;;;;;;;7.03;4.45;;;6.40;99.90;;;;;;4953457;29;20186;-66
2022/03/05 10:56:42;;;;;;;6.15;4.82;;;6.50;99.90;;;;;;4958711;28;20459;-66
2022/03/05 10:59:10;;;;;;;5.93;4.15;;;6.40;99.90;;;;;;4957206;28;20129;-66
2022/03/05 11:01:46;;;;;;;5.57;4.30;;;6.40;99.90;;;;;;4919216;29;20051;-66
2022/03/05 11:04:13;;;;;;;5.20;4.03;;;6.40;99.90;;;;;;4948251;28;20103;-67
2022/03/05 11:06:42;;;;;;;5.85;3.83;;;6.40;99.90;;;;;;4950066;28;20047;-66
2022/03/05 11:09:10;;;;;;;4.85;3.67;;;6.40;99.90;;;;;;4934938;29;20066;-66
2022/03/05 11:11:41;;;;;;;5.65;4.80;;;6.40;99.90;;;;;;4941374;28;20067;-67
2022/03/05 11:14:15;;;;;;;5.78;3.83;;;6.50;99.90;;;;;;4957645;28;20059;-66
2022/03/05 11:16:42;;;;;;;5.95;4.05;;;6.50;99.90;;;;;;4961125;28;20471;-66
2022/03/05 11:19:09;;;;;;;12.27;3.88;;;6.50;99.90;;;;;;4927329;29;20060;-66
2022/03/05 11:21:39;;;;;;;8.00;5.60;;;6.50;99.90;;;;;;4969728;28;20432;-65
2022/03/05 11:24:06;;;;;;;9.07;6.20;;;6.60;99.90;;;;;;4967808;28;20546;-64
2022/03/05 11:26:37;;;;;;;10.32;5.68;;;6.50;99.90;;;;;;4971848;28;20137;-65
2022/03/05 11:29:28;;;;;;;5.38;3.70;;;6.50;99.90;;;;;;4948680;28;20047;-65
2022/03/05 11:32:12;;;;;;;7.50;3.72;;;6.60;99.90;;;;;;4928723;29;20062;-65
2022/03/05 11:34:43;;;;;;;8.13;5.88;;;6.60;99.90;;;;;;4968642;28;20059;-65
2022/03/05 11:37:24;;;;;;;5.35;3.72;;;6.60;99.90;;;;;;4953126;28;20479;-64
2022/03/05 11:39:52;;;;;;;6.20;4.13;;;6.60;99.90;;;;;;4934237;29;20048;-71
2022/03/05 11:42:33;;;;;;;101.05;63.50;;;6.70;99.90;;;;;;4941735;29;20078;-75
2022/03/05 11:45:01;;;;;;;9.07;6.88;;;6.70;99.90;;;;;;4952647;28;20058;-67
2022/03/05 11:47:31;;;;;;;5.63;4.22;;;6.80;99.90;;;;;;4968112;28;20161;-67
2022/03/05 11:49:58;;;;;;;10.10;4.70;;;6.70;99.90;;;;;;4960576;28;20055;-73
2022/03/05 11:52:41;;;;;;;6.75;4.00;;;6.70;99.90;;;;;;4952842;28;20102;-73
2022/03/05 11:55:11;;;;;;;8.93;4.20;;;6.70;99.90;;;;;;4958711;28;20054;-74
2022/03/05 11:57:59;;;;;;;5.22;3.83;;;6.70;99.90;;;;;;4961167;28;20043;-75
2022/03/05 12:00:28;;;;;;;6.35;3.60;;;6.60;99.90;;;;;;4950773;28;20407;-73
2022/03/05 12:02:55;;;;;;;7.10;3.97;;;6.60;99.90;;;;;;4954521;28;20055;-74
2022/03/05 12:05:38;;;;;;;6.85;5.25;;;6.60;99.90;;;;;;4931801;29;20733;-73
2022/03/05 12:08:05;;;;;;;8.00;4.75;;;6.60;99.90;;;;;;4933218;29;20051;-74
2022/03/05 12:10:34;;;;;;;5.47;3.50;;;6.70;99.90;;;;;;4966314;28;20077;-74
2022/03/05 12:13:03;;;;;;;7.70;4.40;;;6.70;99.90;;;;;;4968357;28;20061;-73
2022/03/05 12:15:40;;;;;;;6.78;3.65;;;6.70;99.90;;;;;;4957484;28;20051;-69
2022/03/05 12:18:14;;;;;;;6.47;3.90;;;6.70;99.90;;;;;;4951697;28;20619;-71
2022/03/05 12:20:43;;;;;;;6.45;3.65;;;6.70;99.90;;;;;;4939164;28;20055;-75
2022/03/05 12:23:15;;;;;;;8.30;4.78;;;6.70;99.90;;;;;;4950954;28;20098;-73
2022/03/05 12:25:46;;;;;;;5.03;4.13;;;6.80;99.90;;;;;;4951681;28;20514;-72
2022/03/05 12:28:15;;;;;;;5.70;3.92;;;6.80;99.90;;;;;;4950963;29;20059;-69
2022/03/05 12:30:44;;;;;;;4.60;4.07;;;6.80;99.90;;;;;;4950430;28;20058;-73
2022/03/05 12:33:17;;;;;;;6.65;3.47;;;6.90;99.90;;;;;;4969610;28;20135;-70
2022/03/05 12:35:47;;;;;;;5.53;3.70;;;6.80;99.90;;;;;;4937244;28;20050;-70
2022/03/05 12:38:18;;;;;;;6.78;4.53;;;6.70;99.90;;;;;;4969308;28;20448;-70
2022/03/05 12:40:46;;;;;;;4.40;3.78;;;6.60;99.90;;;;;;4923989;29;20065;-70
2022/03/05 12:43:13;;;;;;;9.63;4.45;;;6.60;99.90;;;;;;4949836;28;20054;-70
2022/03/05 12:45:42;;;;;;;4.70;3.83;;;6.60;99.90;;;;;;4950652;28;20118;-70
2022/03/05 12:48:18;;;;;;;5.57;4.13;;;6.60;99.90;;;;;;4948394;28;20047;-70
2022/03/05 12:50:49;;;;;;;67.43;47.25;;;6.60;99.90;;;;;;4950799;28;20473;-72
2022/03/05 12:53:26;;;;;;;13.05;9.02;;;6.60;99.90;;;;;;4961185;28;20078;-71
2022/03/05 12:55:57;;;;;;;6.68;4.97;;;6.60;99.90;;;;;;4964610;28;20174;-72
2022/03/05 12:58:25;;;;;;;8.20;4.70;;;6.60;99.90;;;;;;4950156;29;20058;-73
2022/03/05 13:00:54;;;;;;;5.75;4.88;;;6.60;99.90;;;;;;4959987;28;20179;-73
2022/03/05 13:03:22;;;;;;;5.47;4.37;;;6.60;99.90;;;;;;4958241;28;20043;-73
2022/03/05 13:05:52;;;;;;;5.82;4.28;;;6.60;99.90;;;;;;4952057;28;20054;-74